sensor_id;sensor_type;location;lat;lon;timestamp;temperature;humidity
21275;DHT22;36472;52.170;20.884;2022-07-29T00:01:46;28.50;50.40
21275;DHT22;36472;52.170;20.884;2022-07-29T00:04:15;28.40;50.30
21275;DHT22;36472;52.170;20.884;2022-07-29T00:06:45;28.40;50.50
21275;DHT22;36472;52.170;20.884;2022-07-29T00:09:13;28.40;51.10
21275;DHT22;36472;52.170;20.884;2022-07-29T00:11:43;28.40;50.40
21275;DHT22;36472;52.170;20.884;2022-07-29T00:14:12;28.40;51.10
21275;DHT22;36472;52.170;20.884;2022-07-29T00:16:41;28.40;50.50
21275;DHT22;36472;52.170;20.884;2022-07-29T00:19:10;28.40;50.20
21275;DHT22;36472;52.170;20.884;2022-07-29T00:21:39;28.40;50.40
21275;DHT22;36472;52.170;20.884;2022-07-29T00:24:08;28.40;50.60
21275;DHT22;36472;52.170;20.884;2022-07-29T00:26:36;28.40;50.40
21275;DHT22;36472;52.170;20.884;2022-07-29T00:29:07;28.40;50.40
21275;DHT22;36472;52.170;20.884;2022-07-29T00:31:55;28.40;50.40
21275;DHT22;36472;52.170;20.884;2022-07-29T00:34:24;28.40;50.40
21275;DHT22;36472;52.170;20.884;2022-07-29T00:37:10;28.40;50.50
21275;DHT22;36472;52.170;20.884;2022-07-29T00:39:38;28.40;50.40
21275;DHT22;36472;52.170;20.884;2022-07-29T00:42:07;28.30;50.40
21275;DHT22;36472;52.170;20.884;2022-07-29T00:44:38;28.30;51.10
21275;DHT22;36472;52.170;20.884;2022-07-29T00:47:09;28.30;50.60
21275;DHT22;36472;52.170;20.884;2022-07-29T00:49:39;28.30;50.60
21275;DHT22;36472;52.170;20.884;2022-07-29T00:52:10;28.30;50.40
21275;DHT22;36472;52.170;20.884;2022-07-29T00:54:43;28.20;50.30
21275;DHT22;36472;52.170;20.884;2022-07-29T00:57:12;28.20;50.60
21275;DHT22;36472;52.170;20.884;2022-07-29T00:59:42;28.20;50.70
21275;DHT22;36472;52.170;20.884;2022-07-29T01:02:11;28.10;50.70
21275;DHT22;36472;52.170;20.884;2022-07-29T01:04:40;28.10;50.70
21275;DHT22;36472;52.170;20.884;2022-07-29T01:07:10;28.10;50.70
21275;DHT22;36472;52.170;20.884;2022-07-29T01:09:40;28.10;50.90
21275;DHT22;36472;52.170;20.884;2022-07-29T01:12:17;28.10;50.80
21275;DHT22;36472;52.170;20.884;2022-07-29T01:14:52;28.20;50.70
21275;DHT22;36472;52.170;20.884;2022-07-29T01:17:26;28.20;50.90
21275;DHT22;36472;52.170;20.884;2022-07-29T01:20:05;28.20;50.40
21275;DHT22;36472;52.170;20.884;2022-07-29T01:22:53;28.20;50.50
21275;DHT22;36472;52.170;20.884;2022-07-29T01:25:46;28.20;50.60
21275;DHT22;36472;52.170;20.884;2022-07-29T01:28:52;28.20;50.60
21275;DHT22;36472;52.170;20.884;2022-07-29T01:31:42;28.20;50.60
21275;DHT22;36472;52.170;20.884;2022-07-29T01:34:31;28.20;50.40
21275;DHT22;36472;52.170;20.884;2022-07-29T01:37:15;28.20;50.30
21275;DHT22;36472;52.170;20.884;2022-07-29T01:39:48;28.20;50.20
21275;DHT22;36472;52.170;20.884;2022-07-29T01:42:25;28.20;50.70
21275;DHT22;36472;52.170;20.884;2022-07-29T01:45:03;28.20;50.10
21275;DHT22;36472;52.170;20.884;2022-07-29T01:47:40;28.20;50.30
21275;DHT22;36472;52.170;20.884;2022-07-29T01:50:16;28.20;50.60
21275;DHT22;36472;52.170;20.884;2022-07-29T01:52:52;28.20;50.60
21275;DHT22;36472;52.170;20.884;2022-07-29T01:55:28;28.20;50.60
21275;DHT22;36472;52.170;20.884;2022-07-29T01:58:01;28.20;50.50
21275;DHT22;36472;52.170;20.884;2022-07-29T02:00:34;28.20;50.50
21275;DHT22;36472;52.170;20.884;2022-07-29T02:03:08;28.20;50.60
21275;DHT22;36472;52.170;20.884;2022-07-29T02:05:41;28.20;50.70
21275;DHT22;36472;52.170;20.884;2022-07-29T02:08:14;28.20;50.80
21275;DHT22;36472;52.170;20.884;2022-07-29T02:10:45;28.20;50.80
21275;DHT22;36472;52.170;20.884;2022-07-29T02:13:18;28.20;51.10
21275;DHT22;36472;52.170;20.884;2022-07-29T02:15:53;28.20;51.20
21275;DHT22;36472;52.170;20.884;2022-07-29T02:18:27;28.20;51.20
21275;DHT22;36472;52.170;20.884;2022-07-29T02:20:59;28.20;51.30
21275;DHT22;36472;52.170;20.884;2022-07-29T02:23:31;28.20;51.30
21275;DHT22;36472;52.170;20.884;2022-07-29T02:26:18;28.20;51.30
21275;DHT22;36472;52.170;20.884;2022-07-29T02:28:49;28.20;51.40
21275;DHT22;36472;52.170;20.884;2022-07-29T02:31:25;28.20;51.60
21275;DHT22;36472;52.170;20.884;2022-07-29T02:34:05;28.20;51.60
21275;DHT22;36472;52.170;20.884;2022-07-29T02:36:37;28.20;51.60
21275;DHT22;36472;52.170;20.884;2022-07-29T02:39:08;28.20;51.60
21275;DHT22;36472;52.170;20.884;2022-07-29T02:41:43;28.20;51.70
21275;DHT22;36472;52.170;20.884;2022-07-29T02:44:15;28.20;52.40
21275;DHT22;36472;52.170;20.884;2022-07-29T02:46:52;28.20;51.60
21275;DHT22;36472;52.170;20.884;2022-07-29T02:49:33;28.20;51.80
21275;DHT22;36472;52.170;20.884;2022-07-29T02:52:08;28.20;51.90
21275;DHT22;36472;52.170;20.884;2022-07-29T02:54:44;28.20;51.90
21275;DHT22;36472;52.170;20.884;2022-07-29T02:57:20;28.20;51.80
21275;DHT22;36472;52.170;20.884;2022-07-29T02:59:57;28.20;51.80
21275;DHT22;36472;52.170;20.884;2022-07-29T03:02:35;28.30;52.00
21275;DHT22;36472;52.170;20.884;2022-07-29T03:05:09;28.20;51.80
21275;DHT22;36472;52.170;20.884;2022-07-29T03:07:45;28.30;52.00
21275;DHT22;36472;52.170;20.884;2022-07-29T03:10:18;28.30;52.00
21275;DHT22;36472;52.170;20.884;2022-07-29T03:12:47;28.30;52.00
21275;DHT22;36472;52.170;20.884;2022-07-29T03:15:16;28.30;52.10
21275;DHT22;36472;52.170;20.884;2022-07-29T03:17:48;28.30;52.20
21275;DHT22;36472;52.170;20.884;2022-07-29T03:20:18;28.30;52.10
21275;DHT22;36472;52.170;20.884;2022-07-29T03:22:47;28.30;52.20
21275;DHT22;36472;52.170;20.884;2022-07-29T03:25:17;28.30;52.30
21275;DHT22;36472;52.170;20.884;2022-07-29T03:27:47;28.30;52.30
21275;DHT22;36472;52.170;20.884;2022-07-29T03:30:16;28.30;52.30
21275;DHT22;36472;52.170;20.884;2022-07-29T03:32:50;28.30;52.30
21275;DHT22;36472;52.170;20.884;2022-07-29T03:35:20;28.40;52.20
21275;DHT22;36472;52.170;20.884;2022-07-29T03:37:49;28.40;52.30
21275;DHT22;36472;52.170;20.884;2022-07-29T03:40:21;28.40;52.10
21275;DHT22;36472;52.170;20.884;2022-07-29T03:42:54;28.50;52.30
21275;DHT22;36472;52.170;20.884;2022-07-29T03:45:23;28.50;52.20
21275;DHT22;36472;52.170;20.884;2022-07-29T03:48:01;28.50;52.10
21275;DHT22;36472;52.170;20.884;2022-07-29T03:50:33;28.50;52.10
21275;DHT22;36472;52.170;20.884;2022-07-29T03:53:03;28.60;52.10
21275;DHT22;36472;52.170;20.884;2022-07-29T03:55:37;28.60;52.10
21275;DHT22;36472;52.170;20.884;2022-07-29T03:58:10;28.60;52.10
21275;DHT22;36472;52.170;20.884;2022-07-29T04:00:41;28.60;52.00
21275;DHT22;36472;52.170;20.884;2022-07-29T04:03:12;28.60;52.10
21275;DHT22;36472;52.170;20.884;2022-07-29T04:05:42;28.70;52.30
21275;DHT22;36472;52.170;20.884;2022-07-29T04:08:10;28.70;52.20
21275;DHT22;36472;52.170;20.884;2022-07-29T04:10:39;28.70;52.10
21275;DHT22;36472;52.170;20.884;2022-07-29T04:13:08;28.80;52.10
21275;DHT22;36472;52.170;20.884;2022-07-29T04:15:36;28.80;52.10
21275;DHT22;36472;52.170;20.884;2022-07-29T04:18:05;28.80;52.00
21275;DHT22;36472;52.170;20.884;2022-07-29T04:20:35;28.90;52.20
21275;DHT22;36472;52.170;20.884;2022-07-29T04:23:04;28.90;52.10
21275;DHT22;36472;52.170;20.884;2022-07-29T04:25:33;28.90;52.00
21275;DHT22;36472;52.170;20.884;2022-07-29T04:28:04;29.00;51.90
21275;DHT22;36472;52.170;20.884;2022-07-29T04:30:34;28.90;52.10
21275;DHT22;36472;52.170;20.884;2022-07-29T04:33:06;29.00;52.10
21275;DHT22;36472;52.170;20.884;2022-07-29T04:35:37;29.00;52.10
21275;DHT22;36472;52.170;20.884;2022-07-29T04:38:18;29.10;52.10
21275;DHT22;36472;52.170;20.884;2022-07-29T04:40:47;29.10;52.10
21275;DHT22;36472;52.170;20.884;2022-07-29T04:43:16;29.10;52.00
21275;DHT22;36472;52.170;20.884;2022-07-29T04:45:49;29.20;52.20
21275;DHT22;36472;52.170;20.884;2022-07-29T04:48:18;29.20;52.10
21275;DHT22;36472;52.170;20.884;2022-07-29T04:50:56;29.20;52.10
21275;DHT22;36472;52.170;20.884;2022-07-29T04:53:25;29.30;52.00
21275;DHT22;36472;52.170;20.884;2022-07-29T04:55:54;29.30;51.90
21275;DHT22;36472;52.170;20.884;2022-07-29T04:58:23;29.40;51.80
21275;DHT22;36472;52.170;20.884;2022-07-29T05:00:51;29.40;51.90
21275;DHT22;36472;52.170;20.884;2022-07-29T05:03:20;29.40;51.60
21275;DHT22;36472;52.170;20.884;2022-07-29T05:05:49;29.40;51.40
21275;DHT22;36472;52.170;20.884;2022-07-29T05:08:19;29.40;51.70
21275;DHT22;36472;52.170;20.884;2022-07-29T05:10:47;29.40;51.20
21275;DHT22;36472;52.170;20.884;2022-07-29T05:13:16;29.40;51.30
21275;DHT22;36472;52.170;20.884;2022-07-29T05:15:45;29.30;51.30
21275;DHT22;36472;52.170;20.884;2022-07-29T05:18:14;29.30;51.30
21275;DHT22;36472;52.170;20.884;2022-07-29T05:20:42;29.30;51.50
21275;DHT22;36472;52.170;20.884;2022-07-29T05:23:11;29.30;51.30
21275;DHT22;36472;52.170;20.884;2022-07-29T05:25:42;29.30;51.50
21275;DHT22;36472;52.170;20.884;2022-07-29T05:28:11;29.30;51.50
21275;DHT22;36472;52.170;20.884;2022-07-29T05:30:40;29.40;51.70
21275;DHT22;36472;52.170;20.884;2022-07-29T05:33:09;29.40;51.40
21275;DHT22;36472;52.170;20.884;2022-07-29T05:35:58;29.50;51.60
21275;DHT22;36472;52.170;20.884;2022-07-29T05:38:27;29.60;51.40
21275;DHT22;36472;52.170;20.884;2022-07-29T05:40:58;29.70;51.30
21275;DHT22;36472;52.170;20.884;2022-07-29T05:43:28;29.80;51.40
21275;DHT22;36472;52.170;20.884;2022-07-29T05:45:57;30.00;51.40
21275;DHT22;36472;52.170;20.884;2022-07-29T05:48:26;30.10;51.10
21275;DHT22;36472;52.170;20.884;2022-07-29T05:50:55;30.30;50.50
21275;DHT22;36472;52.170;20.884;2022-07-29T05:53:23;30.40;50.20
21275;DHT22;36472;52.170;20.884;2022-07-29T05:55:52;30.40;49.90
21275;DHT22;36472;52.170;20.884;2022-07-29T05:58:22;30.50;50.10
21275;DHT22;36472;52.170;20.884;2022-07-29T06:00:51;30.50;49.80
21275;DHT22;36472;52.170;20.884;2022-07-29T06:03:20;30.50;49.60
21275;DHT22;36472;52.170;20.884;2022-07-29T06:05:48;30.60;49.60
21275;DHT22;36472;52.170;20.884;2022-07-29T06:08:17;30.70;49.80
21275;DHT22;36472;52.170;20.884;2022-07-29T06:10:46;30.70;49.60
21275;DHT22;36472;52.170;20.884;2022-07-29T06:13:15;30.70;49.00
21275;DHT22;36472;52.170;20.884;2022-07-29T06:15:45;30.80;49.10
21275;DHT22;36472;52.170;20.884;2022-07-29T06:18:14;30.80;48.80
21275;DHT22;36472;52.170;20.884;2022-07-29T06:20:42;30.90;48.90
21275;DHT22;36472;52.170;20.884;2022-07-29T06:23:11;31.00;48.50
21275;DHT22;36472;52.170;20.884;2022-07-29T06:25:40;31.10;49.00
21275;DHT22;36472;52.170;20.884;2022-07-29T06:28:09;31.30;48.60
21275;DHT22;36472;52.170;20.884;2022-07-29T06:30:38;31.40;48.40
21275;DHT22;36472;52.170;20.884;2022-07-29T06:33:09;31.50;48.30
21275;DHT22;36472;52.170;20.884;2022-07-29T06:35:44;31.60;47.70
21275;DHT22;36472;52.170;20.884;2022-07-29T06:38:21;31.70;47.70
21275;DHT22;36472;52.170;20.884;2022-07-29T06:40:59;31.70;47.30
21275;DHT22;36472;52.170;20.884;2022-07-29T06:43:29;31.90;47.70
21275;DHT22;36472;52.170;20.884;2022-07-29T06:46:03;32.00;47.80
21275;DHT22;36472;52.170;20.884;2022-07-29T06:48:35;32.10;47.50
21275;DHT22;36472;52.170;20.884;2022-07-29T06:51:05;32.10;47.50
21275;DHT22;36472;52.170;20.884;2022-07-29T06:53:34;32.30;47.40
21275;DHT22;36472;52.170;20.884;2022-07-29T06:56:04;32.40;47.60
21275;DHT22;36472;52.170;20.884;2022-07-29T06:58:35;32.50;46.50
21275;DHT22;36472;52.170;20.884;2022-07-29T07:01:07;32.60;47.00
21275;DHT22;36472;52.170;20.884;2022-07-29T07:03:37;32.80;46.40
21275;DHT22;36472;52.170;20.884;2022-07-29T07:06:06;32.90;46.50
21275;DHT22;36472;52.170;20.884;2022-07-29T07:08:41;32.90;45.50
21275;DHT22;36472;52.170;20.884;2022-07-29T07:11:09;33.10;45.60
21275;DHT22;36472;52.170;20.884;2022-07-29T07:13:38;33.40;44.90
21275;DHT22;36472;52.170;20.884;2022-07-29T07:16:07;33.70;44.50
21275;DHT22;36472;52.170;20.884;2022-07-29T07:18:37;33.90;44.70
21275;DHT22;36472;52.170;20.884;2022-07-29T07:21:06;34.10;44.30
21275;DHT22;36472;52.170;20.884;2022-07-29T07:23:35;34.30;43.30
21275;DHT22;36472;52.170;20.884;2022-07-29T07:26:03;34.40;43.30
21275;DHT22;36472;52.170;20.884;2022-07-29T07:28:33;34.50;43.10
21275;DHT22;36472;52.170;20.884;2022-07-29T07:31:02;34.50;42.60
21275;DHT22;36472;52.170;20.884;2022-07-29T07:33:30;34.50;42.70
21275;DHT22;36472;52.170;20.884;2022-07-29T07:36:00;34.50;42.80
21275;DHT22;36472;52.170;20.884;2022-07-29T07:38:29;34.50;43.20
21275;DHT22;36472;52.170;20.884;2022-07-29T07:40:58;34.60;42.90
21275;DHT22;36472;52.170;20.884;2022-07-29T07:43:27;34.90;42.40
21275;DHT22;36472;52.170;20.884;2022-07-29T07:45:56;35.10;42.70
21275;DHT22;36472;52.170;20.884;2022-07-29T07:48:25;35.40;40.80
21275;DHT22;36472;52.170;20.884;2022-07-29T07:50:54;35.60;41.20
21275;DHT22;36472;52.170;20.884;2022-07-29T07:53:24;35.90;40.70
21275;DHT22;36472;52.170;20.884;2022-07-29T07:55:53;36.10;41.20
21275;DHT22;36472;52.170;20.884;2022-07-29T07:58:39;36.40;40.00
21275;DHT22;36472;52.170;20.884;2022-07-29T08:01:08;36.90;39.30
21275;DHT22;36472;52.170;20.884;2022-07-29T08:03:37;37.40;38.70
21275;DHT22;36472;52.170;20.884;2022-07-29T08:06:06;38.10;37.70
21275;DHT22;36472;52.170;20.884;2022-07-29T08:08:36;38.80;37.40
21275;DHT22;36472;52.170;20.884;2022-07-29T08:11:05;39.60;34.50
21275;DHT22;36472;52.170;20.884;2022-07-29T08:13:37;39.90;35.00
21275;DHT22;36472;52.170;20.884;2022-07-29T08:16:07;40.50;34.70
21275;DHT22;36472;52.170;20.884;2022-07-29T08:18:44;40.80;36.10
21275;DHT22;36472;52.170;20.884;2022-07-29T08:21:14;41.10;35.80
21275;DHT22;36472;52.170;20.884;2022-07-29T08:23:45;41.20;34.80
21275;DHT22;36472;52.170;20.884;2022-07-29T08:26:25;41.30;33.50
21275;DHT22;36472;52.170;20.884;2022-07-29T08:28:54;41.30;34.90
21275;DHT22;36472;52.170;20.884;2022-07-29T08:31:22;41.30;34.60
21275;DHT22;36472;52.170;20.884;2022-07-29T08:33:51;41.30;33.80
21275;DHT22;36472;52.170;20.884;2022-07-29T08:36:20;41.30;32.50
21275;DHT22;36472;52.170;20.884;2022-07-29T08:38:50;41.40;33.60
21275;DHT22;36472;52.170;20.884;2022-07-29T08:41:19;41.60;33.70
21275;DHT22;36472;52.170;20.884;2022-07-29T08:43:49;41.60;34.30
21275;DHT22;36472;52.170;20.884;2022-07-29T08:46:19;41.50;31.90
21275;DHT22;36472;52.170;20.884;2022-07-29T08:48:49;41.20;32.00
21275;DHT22;36472;52.170;20.884;2022-07-29T08:51:19;40.80;34.20
21275;DHT22;36472;52.170;20.884;2022-07-29T08:53:50;40.80;33.40
21275;DHT22;36472;52.170;20.884;2022-07-29T08:56:19;41.00;35.80
21275;DHT22;36472;52.170;20.884;2022-07-29T08:58:49;41.20;33.30
21275;DHT22;36472;52.170;20.884;2022-07-29T09:01:23;41.30;33.30
21275;DHT22;36472;52.170;20.884;2022-07-29T09:04:04;41.60;32.70
21275;DHT22;36472;52.170;20.884;2022-07-29T09:06:39;41.90;32.00
21275;DHT22;36472;52.170;20.884;2022-07-29T09:09:13;42.00;32.70
21275;DHT22;36472;52.170;20.884;2022-07-29T09:11:43;42.10;30.70
21275;DHT22;36472;52.170;20.884;2022-07-29T09:14:12;42.30;30.00
21275;DHT22;36472;52.170;20.884;2022-07-29T09:16:46;42.10;30.50
21275;DHT22;36472;52.170;20.884;2022-07-29T09:19:22;41.90;30.50
21275;DHT22;36472;52.170;20.884;2022-07-29T09:21:52;41.70;30.00
21275;DHT22;36472;52.170;20.884;2022-07-29T09:24:39;41.70;31.30
21275;DHT22;36472;52.170;20.884;2022-07-29T09:27:18;41.80;30.80
21275;DHT22;36472;52.170;20.884;2022-07-29T09:29:56;41.80;31.20
21275;DHT22;36472;52.170;20.884;2022-07-29T09:32:26;41.80;32.10
21275;DHT22;36472;52.170;20.884;2022-07-29T09:35:18;41.80;30.10
21275;DHT22;36472;52.170;20.884;2022-07-29T09:37:49;41.80;30.20
21275;DHT22;36472;52.170;20.884;2022-07-29T09:40:21;41.70;31.70
21275;DHT22;36472;52.170;20.884;2022-07-29T09:42:52;41.50;31.60
21275;DHT22;36472;52.170;20.884;2022-07-29T09:45:28;41.70;31.60
21275;DHT22;36472;52.170;20.884;2022-07-29T09:47:59;42.00;32.00
21275;DHT22;36472;52.170;20.884;2022-07-29T09:50:41;42.20;31.20
21275;DHT22;36472;52.170;20.884;2022-07-29T09:53:12;42.10;31.50
21275;DHT22;36472;52.170;20.884;2022-07-29T09:56:04;41.70;30.90
21275;DHT22;36472;52.170;20.884;2022-07-29T09:58:34;41.20;31.90
21275;DHT22;36472;52.170;20.884;2022-07-29T10:01:03;40.60;31.30
21275;DHT22;36472;52.170;20.884;2022-07-29T10:03:32;39.90;32.40
21275;DHT22;36472;52.170;20.884;2022-07-29T10:06:18;39.40;33.80
21275;DHT22;36472;52.170;20.884;2022-07-29T10:08:47;39.00;33.80
21275;DHT22;36472;52.170;20.884;2022-07-29T10:11:18;38.60;34.40
21275;DHT22;36472;52.170;20.884;2022-07-29T10:13:48;38.10;34.90
21275;DHT22;36472;52.170;20.884;2022-07-29T10:16:17;37.80;35.70
21275;DHT22;36472;52.170;20.884;2022-07-29T10:18:46;37.40;35.70
21275;DHT22;36472;52.170;20.884;2022-07-29T10:21:15;36.90;37.00
21275;DHT22;36472;52.170;20.884;2022-07-29T10:24:04;36.70;36.60
21275;DHT22;36472;52.170;20.884;2022-07-29T10:26:43;36.60;37.20
21275;DHT22;36472;52.170;20.884;2022-07-29T10:29:14;36.60;37.10
21275;DHT22;36472;52.170;20.884;2022-07-29T10:31:48;36.90;37.90
21275;DHT22;36472;52.170;20.884;2022-07-29T10:34:30;36.90;38.40
21275;DHT22;36472;52.170;20.884;2022-07-29T10:37:14;37.20;37.70
21275;DHT22;36472;52.170;20.884;2022-07-29T10:39:56;37.40;37.10
21275;DHT22;36472;52.170;20.884;2022-07-29T10:43:00;37.50;37.10
21275;DHT22;36472;52.170;20.884;2022-07-29T10:45:42;37.70;36.40
21275;DHT22;36472;52.170;20.884;2022-07-29T10:48:12;37.80;36.70
21275;DHT22;36472;52.170;20.884;2022-07-29T10:51:00;37.80;35.60
21275;DHT22;36472;52.170;20.884;2022-07-29T10:53:47;38.00;36.40
21275;DHT22;36472;52.170;20.884;2022-07-29T10:56:24;37.80;35.40
21275;DHT22;36472;52.170;20.884;2022-07-29T10:59:23;37.80;35.70
21275;DHT22;36472;52.170;20.884;2022-07-29T11:02:02;37.90;35.60
21275;DHT22;36472;52.170;20.884;2022-07-29T11:05:13;37.90;35.50
21275;DHT22;36472;52.170;20.884;2022-07-29T11:08:22;37.90;36.20
21275;DHT22;36472;52.170;20.884;2022-07-29T11:11:30;37.80;35.10
21275;DHT22;36472;52.170;20.884;2022-07-29T11:14:01;37.80;35.60
21275;DHT22;36472;52.170;20.884;2022-07-29T11:17:03;37.80;35.70
21275;DHT22;36472;52.170;20.884;2022-07-29T11:19:36;37.70;37.20
21275;DHT22;36472;52.170;20.884;2022-07-29T11:22:32;37.60;36.00
21275;DHT22;36472;52.170;20.884;2022-07-29T11:25:15;37.60;36.40
21275;DHT22;36472;52.170;20.884;2022-07-29T11:28:10;37.60;35.40
21275;DHT22;36472;52.170;20.884;2022-07-29T11:30:52;37.60;34.90
21275;DHT22;36472;52.170;20.884;2022-07-29T11:33:30;37.50;36.80
21275;DHT22;36472;52.170;20.884;2022-07-29T11:36:21;37.40;36.30
21275;DHT22;36472;52.170;20.884;2022-07-29T11:45:10;37.50;35.60
21275;DHT22;36472;52.170;20.884;2022-07-29T11:48:00;37.50;35.40
21275;DHT22;36472;52.170;20.884;2022-07-29T11:50:50;37.50;35.50
21275;DHT22;36472;52.170;20.884;2022-07-29T11:53:21;37.40;35.70
21275;DHT22;36472;52.170;20.884;2022-07-29T11:55:54;37.40;34.80
21275;DHT22;36472;52.170;20.884;2022-07-29T11:58:24;37.40;35.40
21275;DHT22;36472;52.170;20.884;2022-07-29T12:00:54;37.20;35.00
21275;DHT22;36472;52.170;20.884;2022-07-29T12:03:31;37.20;36.00
21275;DHT22;36472;52.170;20.884;2022-07-29T12:06:11;37.20;35.90
21275;DHT22;36472;52.170;20.884;2022-07-29T12:08:46;37.10;34.90
21275;DHT22;36472;52.170;20.884;2022-07-29T12:11:17;37.20;35.30
21275;DHT22;36472;52.170;20.884;2022-07-29T12:13:49;37.10;35.80
21275;DHT22;36472;52.170;20.884;2022-07-29T12:16:19;37.10;34.90
21275;DHT22;36472;52.170;20.884;2022-07-29T12:18:57;37.10;35.00
21275;DHT22;36472;52.170;20.884;2022-07-29T12:21:26;37.00;35.20
21275;DHT22;36472;52.170;20.884;2022-07-29T12:23:57;37.00;34.30
21275;DHT22;36472;52.170;20.884;2022-07-29T12:26:36;37.00;35.20
21275;DHT22;36472;52.170;20.884;2022-07-29T12:29:17;37.00;36.40
21275;DHT22;36472;52.170;20.884;2022-07-29T12:32:03;37.00;36.60
21275;DHT22;36472;52.170;20.884;2022-07-29T12:34:45;37.00;35.80
21275;DHT22;36472;52.170;20.884;2022-07-29T12:37:14;36.90;35.30
21275;DHT22;36472;52.170;20.884;2022-07-29T12:39:45;36.80;36.00
21275;DHT22;36472;52.170;20.884;2022-07-29T12:42:15;36.80;36.60
21275;DHT22;36472;52.170;20.884;2022-07-29T12:44:46;36.80;35.20
21275;DHT22;36472;52.170;20.884;2022-07-29T12:47:18;36.70;35.60
21275;DHT22;36472;52.170;20.884;2022-07-29T12:49:49;36.60;35.70
21275;DHT22;36472;52.170;20.884;2022-07-29T12:52:29;36.60;35.70
21275;DHT22;36472;52.170;20.884;2022-07-29T12:55:01;36.50;35.40
21275;DHT22;36472;52.170;20.884;2022-07-29T12:57:43;36.40;35.70
21275;DHT22;36472;52.170;20.884;2022-07-29T13:00:15;36.40;36.20
21275;DHT22;36472;52.170;20.884;2022-07-29T13:02:54;36.40;36.50
21275;DHT22;36472;52.170;20.884;2022-07-29T13:05:24;36.40;36.00
21275;DHT22;36472;52.170;20.884;2022-07-29T13:08:16;36.40;36.70
21275;DHT22;36472;52.170;20.884;2022-07-29T13:10:49;36.50;37.30
21275;DHT22;36472;52.170;20.884;2022-07-29T13:13:18;36.40;35.90
21275;DHT22;36472;52.170;20.884;2022-07-29T13:16:05;36.30;35.50
21275;DHT22;36472;52.170;20.884;2022-07-29T13:18:35;36.40;36.70
21275;DHT22;36472;52.170;20.884;2022-07-29T13:21:11;36.50;37.90
21275;DHT22;36472;52.170;20.884;2022-07-29T13:23:41;36.50;35.40
21275;DHT22;36472;52.170;20.884;2022-07-29T13:26:12;36.60;35.70
21275;DHT22;36472;52.170;20.884;2022-07-29T13:28:40;36.50;36.00
21275;DHT22;36472;52.170;20.884;2022-07-29T13:31:10;36.50;35.00
21275;DHT22;36472;52.170;20.884;2022-07-29T13:33:39;36.40;35.40
21275;DHT22;36472;52.170;20.884;2022-07-29T13:36:08;36.50;35.70
21275;DHT22;36472;52.170;20.884;2022-07-29T13:38:37;36.50;36.40
21275;DHT22;36472;52.170;20.884;2022-07-29T13:41:05;36.50;35.50
21275;DHT22;36472;52.170;20.884;2022-07-29T13:43:36;36.50;35.20
21275;DHT22;36472;52.170;20.884;2022-07-29T13:46:04;36.50;35.30
21275;DHT22;36472;52.170;20.884;2022-07-29T13:48:33;36.50;35.80
21275;DHT22;36472;52.170;20.884;2022-07-29T13:51:02;36.50;37.20
21275;DHT22;36472;52.170;20.884;2022-07-29T13:53:31;36.50;35.90
21275;DHT22;36472;52.170;20.884;2022-07-29T13:56:00;36.50;35.00
21275;DHT22;36472;52.170;20.884;2022-07-29T13:58:29;36.50;35.40
21275;DHT22;36472;52.170;20.884;2022-07-29T14:00:59;36.50;35.40
21275;DHT22;36472;52.170;20.884;2022-07-29T14:03:28;36.50;35.70
21275;DHT22;36472;52.170;20.884;2022-07-29T14:05:57;36.50;35.20
21275;DHT22;36472;52.170;20.884;2022-07-29T14:08:27;36.50;35.80
21275;DHT22;36472;52.170;20.884;2022-07-29T14:10:56;36.40;36.80
21275;DHT22;36472;52.170;20.884;2022-07-29T14:13:24;36.40;35.50
21275;DHT22;36472;52.170;20.884;2022-07-29T14:15:53;36.40;36.40
21275;DHT22;36472;52.170;20.884;2022-07-29T14:18:23;36.30;35.30
21275;DHT22;36472;52.170;20.884;2022-07-29T14:20:52;36.30;35.60
21275;DHT22;36472;52.170;20.884;2022-07-29T14:23:21;36.20;35.40
21275;DHT22;36472;52.170;20.884;2022-07-29T14:25:49;36.30;36.70
21275;DHT22;36472;52.170;20.884;2022-07-29T14:28:19;36.30;36.00
21275;DHT22;36472;52.170;20.884;2022-07-29T14:30:48;36.30;36.10
21275;DHT22;36472;52.170;20.884;2022-07-29T14:33:17;36.20;35.30
21275;DHT22;36472;52.170;20.884;2022-07-29T14:35:47;36.20;35.60
21275;DHT22;36472;52.170;20.884;2022-07-29T14:38:16;36.20;36.20
21275;DHT22;36472;52.170;20.884;2022-07-29T14:40:44;36.20;36.90
21275;DHT22;36472;52.170;20.884;2022-07-29T14:43:17;36.20;36.80
21275;DHT22;36472;52.170;20.884;2022-07-29T14:45:47;36.20;37.00
21275;DHT22;36472;52.170;20.884;2022-07-29T14:48:16;36.20;37.20
21275;DHT22;36472;52.170;20.884;2022-07-29T14:50:46;36.20;36.80
21275;DHT22;36472;52.170;20.884;2022-07-29T14:53:15;36.20;37.80
21275;DHT22;36472;52.170;20.884;2022-07-29T14:55:44;36.20;37.00
21275;DHT22;36472;52.170;20.884;2022-07-29T14:58:14;36.30;36.20
21275;DHT22;36472;52.170;20.884;2022-07-29T15:00:42;36.30;36.40
21275;DHT22;36472;52.170;20.884;2022-07-29T15:03:11;36.20;36.40
21275;DHT22;36472;52.170;20.884;2022-07-29T15:05:52;36.20;38.30
21275;DHT22;36472;52.170;20.884;2022-07-29T15:08:21;36.00;36.20
21275;DHT22;36472;52.170;20.884;2022-07-29T15:10:50;36.00;36.70
21275;DHT22;36472;52.170;20.884;2022-07-29T15:13:21;36.00;37.20
21275;DHT22;36472;52.170;20.884;2022-07-29T15:15:49;36.00;36.90
21275;DHT22;36472;52.170;20.884;2022-07-29T15:18:23;36.10;37.80
21275;DHT22;36472;52.170;20.884;2022-07-29T15:20:53;36.10;37.70
21275;DHT22;36472;52.170;20.884;2022-07-29T15:23:22;36.20;36.90
21275;DHT22;36472;52.170;20.884;2022-07-29T15:25:50;36.20;36.80
21275;DHT22;36472;52.170;20.884;2022-07-29T15:28:19;36.10;37.10
21275;DHT22;36472;52.170;20.884;2022-07-29T15:30:48;35.90;36.20
21275;DHT22;36472;52.170;20.884;2022-07-29T15:33:16;36.00;36.60
21275;DHT22;36472;52.170;20.884;2022-07-29T15:35:46;36.00;36.00
21275;DHT22;36472;52.170;20.884;2022-07-29T15:38:16;36.10;37.10
21275;DHT22;36472;52.170;20.884;2022-07-29T15:40:45;36.20;37.30
21275;DHT22;36472;52.170;20.884;2022-07-29T15:43:14;36.20;36.70
21275;DHT22;36472;52.170;20.884;2022-07-29T15:45:43;36.20;36.30
21275;DHT22;36472;52.170;20.884;2022-07-29T15:48:33;36.20;35.90
21275;DHT22;36472;52.170;20.884;2022-07-29T15:51:06;36.20;36.40
21275;DHT22;36472;52.170;20.884;2022-07-29T15:53:36;36.20;36.90
21275;DHT22;36472;52.170;20.884;2022-07-29T15:56:05;36.20;37.30
21275;DHT22;36472;52.170;20.884;2022-07-29T15:58:33;36.20;38.00